sensor_id;sensor_type;location;lat;lon;timestamp;P1;durP1;ratioP1;P2;durP2;ratioP2
70929;SDS011;58588;48.102;19.682;2023-02-12T00:01:22;114.00;;;38.28;;
70929;SDS011;58588;48.102;19.682;2023-02-12T00:04:25;111.50;;;39.40;;
70929;SDS011;58588;48.102;19.682;2023-02-12T00:07:28;102.25;;;33.85;;
70929;SDS011;58588;48.102;19.682;2023-02-12T00:10:30;62.55;;;22.00;;
70929;SDS011;58588;48.102;19.682;2023-02-12T00:13:34;53.47;;;21.67;;
70929;SDS011;58588;48.102;19.682;2023-02-12T00:16:36;56.80;;;19.57;;
70929;SDS011;58588;48.102;19.682;2023-02-12T00:19:39;41.15;;;16.30;;
70929;SDS011;58588;48.102;19.682;2023-02-12T00:22:41;47.03;;;16.85;;
70929;SDS011;58588;48.102;19.682;2023-02-12T00:25:43;45.97;;;18.45;;
70929;SDS011;58588;48.102;19.682;2023-02-12T00:28:46;49.92;;;16.77;;
70929;SDS011;58588;48.102;19.682;2023-02-12T00:31:49;51.57;;;18.37;;
70929;SDS011;58588;48.102;19.682;2023-02-12T00:34:51;49.17;;;18.30;;
70929;SDS011;58588;48.102;19.682;2023-02-12T00:37:53;58.08;;;20.95;;
70929;SDS011;58588;48.102;19.682;2023-02-12T00:40:55;54.50;;;20.42;;
70929;SDS011;58588;48.102;19.682;2023-02-12T00:43:58;47.97;;;19.05;;
70929;SDS011;58588;48.102;19.682;2023-02-12T00:47:00;49.77;;;18.60;;
70929;SDS011;58588;48.102;19.682;2023-02-12T00:50:03;62.80;;;20.58;;
70929;SDS011;58588;48.102;19.682;2023-02-12T00:53:05;62.08;;;22.77;;
70929;SDS011;58588;48.102;19.682;2023-02-12T00:56:07;60.22;;;22.75;;
70929;SDS011;58588;48.102;19.682;2023-02-12T00:59:11;65.25;;;24.13;;
70929;SDS011;58588;48.102;19.682;2023-02-12T01:05:51;53.88;;;21.67;;
70929;SDS011;58588;48.102;19.682;2023-02-12T01:08:53;58.92;;;23.58;;
70929;SDS011;58588;48.102;19.682;2023-02-12T01:11:55;54.50;;;21.73;;
70929;SDS011;58588;48.102;19.682;2023-02-12T01:14:59;52.40;;;19.90;;
70929;SDS011;58588;48.102;19.682;2023-02-12T01:18:01;56.95;;;19.20;;
70929;SDS011;58588;48.102;19.682;2023-02-12T01:21:07;76.35;;;27.80;;
70929;SDS011;58588;48.102;19.682;2023-02-12T01:24:10;55.13;;;21.95;;
70929;SDS011;58588;48.102;19.682;2023-02-12T01:27:12;50.00;;;18.85;;
70929;SDS011;58588;48.102;19.682;2023-02-12T01:30:17;48.63;;;16.92;;
70929;SDS011;58588;48.102;19.682;2023-02-12T01:33:21;48.97;;;19.10;;
70929;SDS011;58588;48.102;19.682;2023-02-12T01:36:23;52.97;;;19.58;;
70929;SDS011;58588;48.102;19.682;2023-02-12T01:39:25;48.75;;;17.33;;
70929;SDS011;58588;48.102;19.682;2023-02-12T01:42:27;55.43;;;19.03;;
70929;SDS011;58588;48.102;19.682;2023-02-12T01:45:43;54.97;;;20.38;;
70929;SDS011;58588;48.102;19.682;2023-02-12T01:48:47;54.53;;;20.33;;
70929;SDS011;58588;48.102;19.682;2023-02-12T01:51:50;51.20;;;19.63;;
70929;SDS011;58588;48.102;19.682;2023-02-12T01:54:57;57.30;;;20.23;;
70929;SDS011;58588;48.102;19.682;2023-02-12T01:58:02;58.65;;;20.90;;
70929;SDS011;58588;48.102;19.682;2023-02-12T02:01:07;53.08;;;19.38;;
70929;SDS011;58588;48.102;19.682;2023-02-12T02:04:14;61.83;;;21.95;;
70929;SDS011;58588;48.102;19.682;2023-02-12T02:07:20;57.37;;;21.37;;
70929;SDS011;58588;48.102;19.682;2023-02-12T02:10:22;53.65;;;19.42;;
70929;SDS011;58588;48.102;19.682;2023-02-12T02:13:24;50.67;;;18.33;;
70929;SDS011;58588;48.102;19.682;2023-02-12T02:16:46;53.40;;;19.02;;
70929;SDS011;58588;48.102;19.682;2023-02-12T02:20:05;56.10;;;21.50;;
70929;SDS011;58588;48.102;19.682;2023-02-12T02:30:31;51.63;;;19.23;;
70929;SDS011;58588;48.102;19.682;2023-02-12T02:33:40;75.07;;;26.77;;
70929;SDS011;58588;48.102;19.682;2023-02-12T02:37:07;95.22;;;30.90;;
70929;SDS011;58588;48.102;19.682;2023-02-12T02:40:18;60.53;;;20.45;;
70929;SDS011;58588;48.102;19.682;2023-02-12T02:43:25;48.83;;;17.30;;
70929;SDS011;58588;48.102;19.682;2023-02-12T02:46:33;58.42;;;18.70;;
70929;SDS011;58588;48.102;19.682;2023-02-12T02:49:42;49.10;;;16.58;;
70929;SDS011;58588;48.102;19.682;2023-02-12T02:52:48;50.75;;;16.77;;
70929;SDS011;58588;48.102;19.682;2023-02-12T02:55:55;47.78;;;18.10;;
70929;SDS011;58588;48.102;19.682;2023-02-12T02:59:01;54.63;;;18.53;;
70929;SDS011;58588;48.102;19.682;2023-02-12T03:02:10;49.22;;;17.48;;
70929;SDS011;58588;48.102;19.682;2023-02-12T03:05:19;51.75;;;17.08;;
70929;SDS011;58588;48.102;19.682;2023-02-12T03:08:27;50.38;;;18.05;;
70929;SDS011;58588;48.102;19.682;2023-02-12T03:11:34;51.47;;;17.70;;
70929;SDS011;58588;48.102;19.682;2023-02-12T03:14:37;50.88;;;17.10;;
70929;SDS011;58588;48.102;19.682;2023-02-12T03:17:44;55.47;;;19.70;;
70929;SDS011;58588;48.102;19.682;2023-02-12T03:20:49;51.40;;;17.58;;
70929;SDS011;58588;48.102;19.682;2023-02-12T03:23:56;48.77;;;17.23;;
70929;SDS011;58588;48.102;19.682;2023-02-12T03:27:04;49.20;;;18.60;;
70929;SDS011;58588;48.102;19.682;2023-02-12T03:30:10;58.80;;;24.10;;
70929;SDS011;58588;48.102;19.682;2023-02-12T03:33:17;59.78;;;21.70;;
70929;SDS011;58588;48.102;19.682;2023-02-12T03:36:25;56.78;;;20.63;;
70929;SDS011;58588;48.102;19.682;2023-02-12T03:39:37;52.08;;;17.77;;
70929;SDS011;58588;48.102;19.682;2023-02-12T03:42:46;45.25;;;16.70;;
70929;SDS011;58588;48.102;19.682;2023-02-12T03:45:54;44.50;;;16.00;;
70929;SDS011;58588;48.102;19.682;2023-02-12T03:49:04;44.33;;;16.33;;
70929;SDS011;58588;48.102;19.682;2023-02-12T03:52:10;53.88;;;16.88;;
70929;SDS011;58588;48.102;19.682;2023-02-12T03:55:12;45.20;;;15.75;;
70929;SDS011;58588;48.102;19.682;2023-02-12T03:58:16;43.57;;;15.63;;
70929;SDS011;58588;48.102;19.682;2023-02-12T04:01:26;43.17;;;15.13;;
70929;SDS011;58588;48.102;19.682;2023-02-12T04:04:30;41.53;;;15.27;;
70929;SDS011;58588;48.102;19.682;2023-02-12T04:07:33;43.40;;;15.27;;
70929;SDS011;58588;48.102;19.682;2023-02-12T04:10:40;44.10;;;16.15;;
70929;SDS011;58588;48.102;19.682;2023-02-12T04:14:04;46.95;;;15.82;;
70929;SDS011;58588;48.102;19.682;2023-02-12T04:17:18;40.50;;;15.40;;
70929;SDS011;58588;48.102;19.682;2023-02-12T04:20:26;44.13;;;15.57;;
70929;SDS011;58588;48.102;19.682;2023-02-12T04:23:44;43.00;;;16.98;;
70929;SDS011;58588;48.102;19.682;2023-02-12T04:26:50;46.55;;;15.82;;
70929;SDS011;58588;48.102;19.682;2023-02-12T04:29:56;40.55;;;15.07;;
70929;SDS011;58588;48.102;19.682;2023-02-12T04:33:05;44.23;;;14.83;;
70929;SDS011;58588;48.102;19.682;2023-02-12T04:36:14;43.83;;;15.77;;
70929;SDS011;58588;48.102;19.682;2023-02-12T04:39:23;74.50;;;24.17;;
70929;SDS011;58588;48.102;19.682;2023-02-12T04:42:27;59.38;;;24.45;;
70929;SDS011;58588;48.102;19.682;2023-02-12T04:45:31;59.17;;;22.37;;
70929;SDS011;58588;48.102;19.682;2023-02-12T04:48:35;52.95;;;21.73;;
70929;SDS011;58588;48.102;19.682;2023-02-12T04:51:41;60.53;;;22.35;;
70929;SDS011;58588;48.102;19.682;2023-02-12T04:54:44;54.45;;;20.63;;
70929;SDS011;58588;48.102;19.682;2023-02-12T04:57:46;53.30;;;19.33;;
70929;SDS011;58588;48.102;19.682;2023-02-12T05:00:48;57.20;;;20.25;;
70929;SDS011;58588;48.102;19.682;2023-02-12T05:03:50;46.17;;;18.77;;
70929;SDS011;58588;48.102;19.682;2023-02-12T05:06:54;53.23;;;19.50;;
70929;SDS011;58588;48.102;19.682;2023-02-12T05:09:56;49.97;;;18.50;;
70929;SDS011;58588;48.102;19.682;2023-02-12T05:12:58;49.50;;;18.98;;
70929;SDS011;58588;48.102;19.682;2023-02-12T05:16:03;60.28;;;20.80;;
70929;SDS011;58588;48.102;19.682;2023-02-12T05:19:06;70.93;;;26.30;;
70929;SDS011;58588;48.102;19.682;2023-02-12T05:22:10;75.75;;;28.83;;
70929;SDS011;58588;48.102;19.682;2023-02-12T05:25:13;52.50;;;20.23;;
70929;SDS011;58588;48.102;19.682;2023-02-12T05:28:15;49.17;;;17.63;;
70929;SDS011;58588;48.102;19.682;2023-02-12T05:31:17;46.65;;;17.30;;
70929;SDS011;58588;48.102;19.682;2023-02-12T05:34:21;51.38;;;18.25;;
70929;SDS011;58588;48.102;19.682;2023-02-12T05:37:24;55.45;;;20.02;;
70929;SDS011;58588;48.102;19.682;2023-02-12T05:40:26;49.93;;;18.83;;
70929;SDS011;58588;48.102;19.682;2023-02-12T05:43:28;48.08;;;16.95;;
70929;SDS011;58588;48.102;19.682;2023-02-12T05:46:31;45.70;;;15.30;;
70929;SDS011;58588;48.102;19.682;2023-02-12T05:49:33;42.72;;;14.63;;
70929;SDS011;58588;48.102;19.682;2023-02-12T05:52:36;43.75;;;16.38;;
70929;SDS011;58588;48.102;19.682;2023-02-12T05:55:38;45.53;;;15.25;;
70929;SDS011;58588;48.102;19.682;2023-02-12T05:58:41;40.92;;;15.48;;
70929;SDS011;58588;48.102;19.682;2023-02-12T06:01:45;45.33;;;16.83;;
70929;SDS011;58588;48.102;19.682;2023-02-12T06:04:48;55.45;;;21.25;;
70929;SDS011;58588;48.102;19.682;2023-02-12T06:07:52;60.03;;;22.48;;
70929;SDS011;58588;48.102;19.682;2023-02-12T06:10:54;52.30;;;18.45;;
70929;SDS011;58588;48.102;19.682;2023-02-12T06:14:00;50.53;;;18.33;;
70929;SDS011;58588;48.102;19.682;2023-02-12T06:17:03;50.55;;;18.58;;
70929;SDS011;58588;48.102;19.682;2023-02-12T06:20:05;60.03;;;22.30;;
70929;SDS011;58588;48.102;19.682;2023-02-12T06:23:09;51.00;;;18.75;;
70929;SDS011;58588;48.102;19.682;2023-02-12T06:26:11;45.40;;;16.55;;
70929;SDS011;58588;48.102;19.682;2023-02-12T06:29:13;45.30;;;16.77;;
70929;SDS011;58588;48.102;19.682;2023-02-12T06:32:15;83.53;;;27.55;;
70929;SDS011;58588;48.102;19.682;2023-02-12T06:35:17;85.77;;;29.80;;
70929;SDS011;58588;48.102;19.682;2023-02-12T06:38:20;88.97;;;31.77;;
70929;SDS011;58588;48.102;19.682;2023-02-12T06:41:22;96.78;;;32.38;;
70929;SDS011;58588;48.102;19.682;2023-02-12T06:44:25;95.32;;;36.83;;
70929;SDS011;58588;48.102;19.682;2023-02-12T06:47:27;94.70;;;33.13;;
70929;SDS011;58588;48.102;19.682;2023-02-12T06:50:29;99.95;;;32.03;;
70929;SDS011;58588;48.102;19.682;2023-02-12T06:53:33;89.18;;;32.05;;
70929;SDS011;58588;48.102;19.682;2023-02-12T06:56:35;81.73;;;29.03;;
70929;SDS011;58588;48.102;19.682;2023-02-12T06:59:37;83.05;;;29.10;;
70929;SDS011;58588;48.102;19.682;2023-02-12T07:02:39;77.55;;;27.67;;
70929;SDS011;58588;48.102;19.682;2023-02-12T07:05:41;76.07;;;26.67;;
70929;SDS011;58588;48.102;19.682;2023-02-12T07:08:44;79.25;;;26.88;;
70929;SDS011;58588;48.102;19.682;2023-02-12T07:11:46;74.10;;;27.75;;
70929;SDS011;58588;48.102;19.682;2023-02-12T07:14:49;86.85;;;33.15;;
70929;SDS011;58588;48.102;19.682;2023-02-12T07:17:51;120.67;;;44.13;;
70929;SDS011;58588;48.102;19.682;2023-02-12T07:20:54;124.57;;;43.45;;
70929;SDS011;58588;48.102;19.682;2023-02-12T07:23:58;102.30;;;37.75;;
70929;SDS011;58588;48.102;19.682;2023-02-12T07:27:00;109.22;;;40.42;;
70929;SDS011;58588;48.102;19.682;2023-02-12T07:30:02;119.20;;;44.47;;
70929;SDS011;58588;48.102;19.682;2023-02-12T07:33:05;99.72;;;36.78;;
70929;SDS011;58588;48.102;19.682;2023-02-12T07:36:08;88.07;;;34.67;;
70929;SDS011;58588;48.102;19.682;2023-02-12T07:39:12;135.18;;;49.97;;
70929;SDS011;58588;48.102;19.682;2023-02-12T07:42:14;124.80;;;48.08;;
70929;SDS011;58588;48.102;19.682;2023-02-12T07:45:17;87.70;;;34.40;;
70929;SDS011;58588;48.102;19.682;2023-02-12T07:48:19;77.95;;;28.38;;
70929;SDS011;58588;48.102;19.682;2023-02-12T07:51:21;79.13;;;33.10;;
70929;SDS011;58588;48.102;19.682;2023-02-12T07:54:25;93.93;;;36.45;;
70929;SDS011;58588;48.102;19.682;2023-02-12T07:57:27;94.45;;;40.30;;
70929;SDS011;58588;48.102;19.682;2023-02-12T08:00:29;78.00;;;31.83;;
70929;SDS011;58588;48.102;19.682;2023-02-12T08:03:31;87.47;;;35.33;;
70929;SDS011;58588;48.102;19.682;2023-02-12T08:06:34;78.55;;;31.83;;
70929;SDS011;58588;48.102;19.682;2023-02-12T08:09:39;77.43;;;30.67;;
70929;SDS011;58588;48.102;19.682;2023-02-12T08:12:41;81.60;;;32.45;;
70929;SDS011;58588;48.102;19.682;2023-02-12T08:15:43;73.20;;;27.23;;
70929;SDS011;58588;48.102;19.682;2023-02-12T08:18:45;72.53;;;27.80;;
70929;SDS011;58588;48.102;19.682;2023-02-12T08:21:48;79.72;;;28.80;;
70929;SDS011;58588;48.102;19.682;2023-02-12T08:24:52;66.90;;;27.77;;
70929;SDS011;58588;48.102;19.682;2023-02-12T08:27:54;65.10;;;25.67;;
70929;SDS011;58588;48.102;19.682;2023-02-12T08:30:58;67.60;;;26.00;;
70929;SDS011;58588;48.102;19.682;2023-02-12T08:34:01;58.20;;;24.45;;
70929;SDS011;58588;48.102;19.682;2023-02-12T08:37:06;68.95;;;27.45;;
70929;SDS011;58588;48.102;19.682;2023-02-12T08:43:59;50.03;;;21.77;;
70929;SDS011;58588;48.102;19.682;2023-02-12T08:47:03;49.20;;;20.37;;
70929;SDS011;58588;48.102;19.682;2023-02-12T08:50:06;40.88;;;18.33;;
70929;SDS011;58588;48.102;19.682;2023-02-12T08:53:09;45.60;;;18.80;;
70929;SDS011;58588;48.102;19.682;2023-02-12T08:56:13;39.92;;;15.98;;
70929;SDS011;58588;48.102;19.682;2023-02-12T08:59:16;36.00;;;13.98;;
70929;SDS011;58588;48.102;19.682;2023-02-12T09:02:18;30.63;;;13.20;;
70929;SDS011;58588;48.102;19.682;2023-02-12T09:05:20;32.45;;;13.48;;
70929;SDS011;58588;48.102;19.682;2023-02-12T09:08:22;29.73;;;12.43;;
70929;SDS011;58588;48.102;19.682;2023-02-12T09:11:26;25.15;;;11.40;;
70929;SDS011;58588;48.102;19.682;2023-02-12T09:14:30;24.88;;;9.65;;
70929;SDS011;58588;48.102;19.682;2023-02-12T09:17:32;18.67;;;8.90;;
70929;SDS011;58588;48.102;19.682;2023-02-12T09:20:35;19.05;;;8.35;;
70929;SDS011;58588;48.102;19.682;2023-02-12T09:23:39;21.63;;;8.88;;
70929;SDS011;58588;48.102;19.682;2023-02-12T09:26:45;26.15;;;10.15;;
70929;SDS011;58588;48.102;19.682;2023-02-12T09:29:47;24.25;;;11.88;;
70929;SDS011;58588;48.102;19.682;2023-02-12T09:32:49;22.67;;;10.10;;
70929;SDS011;58588;48.102;19.682;2023-02-12T09:35:51;23.50;;;10.00;;
70929;SDS011;58588;48.102;19.682;2023-02-12T09:38:53;22.75;;;9.95;;
70929;SDS011;58588;48.102;19.682;2023-02-12T09:42:04;24.63;;;9.88;;
70929;SDS011;58588;48.102;19.682;2023-02-12T09:45:19;22.25;;;10.15;;
70929;SDS011;58588;48.102;19.682;2023-02-12T09:48:33;27.27;;;10.50;;
70929;SDS011;58588;48.102;19.682;2023-02-12T09:51:44;25.23;;;10.90;;
70929;SDS011;58588;48.102;19.682;2023-02-12T09:54:50;26.25;;;10.05;;
70929;SDS011;58588;48.102;19.682;2023-02-12T09:57:55;24.90;;;10.10;;
70929;SDS011;58588;48.102;19.682;2023-02-12T10:00:57;27.35;;;10.85;;
70929;SDS011;58588;48.102;19.682;2023-02-12T10:04:01;23.07;;;10.20;;
70929;SDS011;58588;48.102;19.682;2023-02-12T10:07:06;20.67;;;9.65;;
70929;SDS011;58588;48.102;19.682;2023-02-12T10:10:31;22.00;;;9.73;;
70929;SDS011;58588;48.102;19.682;2023-02-12T10:13:52;20.67;;;9.63;;
70929;SDS011;58588;48.102;19.682;2023-02-12T10:17:06;23.33;;;10.13;;
70929;SDS011;58588;48.102;19.682;2023-02-12T10:24:01;24.02;;;11.50;;
70929;SDS011;58588;48.102;19.682;2023-02-12T10:27:24;23.40;;;11.40;;
70929;SDS011;58588;48.102;19.682;2023-02-12T10:30:42;25.27;;;10.95;;
70929;SDS011;58588;48.102;19.682;2023-02-12T10:33:49;24.60;;;11.32;;
70929;SDS011;58588;48.102;19.682;2023-02-12T10:36:55;25.07;;;11.17;;
70929;SDS011;58588;48.102;19.682;2023-02-12T10:40:16;24.83;;;10.85;;
70929;SDS011;58588;48.102;19.682;2023-02-12T10:43:22;22.42;;;10.35;;
70929;SDS011;58588;48.102;19.682;2023-02-12T10:46:26;22.75;;;10.93;;
70929;SDS011;58588;48.102;19.682;2023-02-12T10:49:39;21.95;;;10.10;;
70929;SDS011;58588;48.102;19.682;2023-02-12T10:52:44;19.07;;;8.93;;
70929;SDS011;58588;48.102;19.682;2023-02-12T10:55:48;23.88;;;11.90;;
70929;SDS011;58588;48.102;19.682;2023-02-12T10:58:54;16.90;;;8.52;;
70929;SDS011;58588;48.102;19.682;2023-02-12T11:01:59;18.13;;;8.32;;
70929;SDS011;58588;48.102;19.682;2023-02-12T11:08:28;19.37;;;9.00;;
70929;SDS011;58588;48.102;19.682;2023-02-12T11:11:35;16.35;;;6.97;;
70929;SDS011;58588;48.102;19.682;2023-02-12T11:14:39;15.38;;;6.28;;
70929;SDS011;58588;48.102;19.682;2023-02-12T11:17:44;12.20;;;5.57;;
70929;SDS011;58588;48.102;19.682;2023-02-12T11:20:56;13.23;;;6.25;;
70929;SDS011;58588;48.102;19.682;2023-02-12T11:24:20;14.00;;;6.43;;
70929;SDS011;58588;48.102;19.682;2023-02-12T11:27:29;12.88;;;5.72;;
70929;SDS011;58588;48.102;19.682;2023-02-12T11:30:31;11.73;;;4.80;;
70929;SDS011;58588;48.102;19.682;2023-02-12T11:33:35;11.00;;;4.30;;
70929;SDS011;58588;48.102;19.682;2023-02-12T11:36:39;13.18;;;5.15;;
70929;SDS011;58588;48.102;19.682;2023-02-12T11:39:45;8.87;;;3.33;;
70929;SDS011;58588;48.102;19.682;2023-02-12T11:42:49;10.45;;;4.30;;
70929;SDS011;58588;48.102;19.682;2023-02-12T11:45:54;66.55;;;24.08;;
70929;SDS011;58588;48.102;19.682;2023-02-12T11:48:59;18.45;;;7.03;;
70929;SDS011;58588;48.102;19.682;2023-02-12T11:52:16;12.07;;;5.18;;
70929;SDS011;58588;48.102;19.682;2023-02-12T11:55:22;10.47;;;4.37;;
70929;SDS011;58588;48.102;19.682;2023-02-12T11:58:32;14.75;;;7.15;;
70929;SDS011;58588;48.102;19.682;2023-02-12T12:01:47;13.82;;;5.72;;
70929;SDS011;58588;48.102;19.682;2023-02-12T12:05:00;14.68;;;7.15;;
70929;SDS011;58588;48.102;19.682;2023-02-12T12:08:10;45.47;;;19.85;;
70929;SDS011;58588;48.102;19.682;2023-02-12T12:11:17;11.03;;;4.47;;
70929;SDS011;58588;48.102;19.682;2023-02-12T12:14:23;13.60;;;5.05;;
70929;SDS011;58588;48.102;19.682;2023-02-12T12:17:35;10.50;;;4.40;;
70929;SDS011;58588;48.102;19.682;2023-02-12T12:21:02;11.10;;;4.80;;
70929;SDS011;58588;48.102;19.682;2023-02-12T12:24:13;9.80;;;4.15;;
70929;SDS011;58588;48.102;19.682;2023-02-12T12:27:19;10.53;;;4.40;;
70929;SDS011;58588;48.102;19.682;2023-02-12T12:30:48;40.65;;;18.75;;
70929;SDS011;58588;48.102;19.682;2023-02-12T12:34:01;37.15;;;17.25;;
70929;SDS011;58588;48.102;19.682;2023-02-12T12:37:16;30.83;;;15.30;;
70929;SDS011;58588;48.102;19.682;2023-02-12T12:40:31;30.30;;;14.13;;
70929;SDS011;58588;48.102;19.682;2023-02-12T12:43:45;28.67;;;12.57;;
70929;SDS011;58588;48.102;19.682;2023-02-12T12:47:00;27.23;;;12.55;;
70929;SDS011;58588;48.102;19.682;2023-02-12T12:50:25;26.52;;;11.98;;
70929;SDS011;58588;48.102;19.682;2023-02-12T12:53:41;23.08;;;10.10;;
70929;SDS011;58588;48.102;19.682;2023-02-12T12:56:56;24.52;;;12.57;;
70929;SDS011;58588;48.102;19.682;2023-02-12T13:00:13;22.00;;;10.33;;
70929;SDS011;58588;48.102;19.682;2023-02-12T13:06:55;29.00;;;12.15;;
70929;SDS011;58588;48.102;19.682;2023-02-12T13:10:18;32.25;;;13.63;;
70929;SDS011;58588;48.102;19.682;2023-02-12T13:13:29;34.03;;;16.75;;
70929;SDS011;58588;48.102;19.682;2023-02-12T13:16:35;43.13;;;23.00;;
70929;SDS011;58588;48.102;19.682;2023-02-12T13:19:47;33.10;;;15.95;;
70929;SDS011;58588;48.102;19.682;2023-02-12T13:23:00;37.85;;;17.13;;
70929;SDS011;58588;48.102;19.682;2023-02-12T13:26:09;34.25;;;16.30;;
70929;SDS011;58588;48.102;19.682;2023-02-12T13:29:17;35.67;;;16.77;;
70929;SDS011;58588;48.102;19.682;2023-02-12T13:32:22;38.20;;;18.10;;
70929;SDS011;58588;48.102;19.682;2023-02-12T13:35:27;38.70;;;18.50;;
70929;SDS011;58588;48.102;19.682;2023-02-12T13:38:32;64.90;;;28.45;;
70929;SDS011;58588;48.102;19.682;2023-02-12T13:41:39;52.10;;;23.75;;
70929;SDS011;58588;48.102;19.682;2023-02-12T13:44:49;39.03;;;17.48;;
70929;SDS011;58588;48.102;19.682;2023-02-12T13:48:05;39.47;;;16.23;;
70929;SDS011;58588;48.102;19.682;2023-02-12T13:51:23;28.45;;;13.93;;
70929;SDS011;58588;48.102;19.682;2023-02-12T14:01:41;25.55;;;12.07;;
70929;SDS011;58588;48.102;19.682;2023-02-12T14:04:46;24.77;;;11.60;;
70929;SDS011;58588;48.102;19.682;2023-02-12T14:07:55;23.92;;;11.05;;
70929;SDS011;58588;48.102;19.682;2023-02-12T14:11:06;23.92;;;11.07;;
70929;SDS011;58588;48.102;19.682;2023-02-12T14:14:09;23.05;;;10.75;;
70929;SDS011;58588;48.102;19.682;2023-02-12T14:24:52;23.77;;;10.18;;
70929;SDS011;58588;48.102;19.682;2023-02-12T14:27:55;21.80;;;9.82;;
70929;SDS011;58588;48.102;19.682;2023-02-12T14:34:40;20.00;;;9.25;;
70929;SDS011;58588;48.102;19.682;2023-02-12T14:37:42;20.63;;;9.67;;
70929;SDS011;58588;48.102;19.682;2023-02-12T14:40:47;22.70;;;9.48;;
70929;SDS011;58588;48.102;19.682;2023-02-12T14:43:50;24.75;;;8.63;;
70929;SDS011;58588;48.102;19.682;2023-02-12T14:47:04;20.80;;;9.38;;
70929;SDS011;58588;48.102;19.682;2023-02-12T14:50:14;24.70;;;9.32;;
70929;SDS011;58588;48.102;19.682;2023-02-12T14:53:25;21.80;;;10.17;;
70929;SDS011;58588;48.102;19.682;2023-02-12T14:56:32;28.58;;;13.80;;
70929;SDS011;58588;48.102;19.682;2023-02-12T14:59:49;288.15;;;147.10;;
70929;SDS011;58588;48.102;19.682;2023-02-12T15:02:57;467.83;;;185.43;;
70929;SDS011;58588;48.102;19.682;2023-02-12T15:06:05;307.15;;;163.35;;
70929;SDS011;58588;48.102;19.682;2023-02-12T15:09:12;26.47;;;13.73;;
70929;SDS011;58588;48.102;19.682;2023-02-12T15:12:24;41.80;;;23.77;;
70929;SDS011;58588;48.102;19.682;2023-02-12T15:15:32;84.68;;;42.85;;
70929;SDS011;58588;48.102;19.682;2023-02-12T15:18:41;71.95;;;36.92;;
70929;SDS011;58588;48.102;19.682;2023-02-12T15:21:51;56.42;;;30.10;;
70929;SDS011;58588;48.102;19.682;2023-02-12T15:28:23;43.13;;;21.20;;
70929;SDS011;58588;48.102;19.682;2023-02-12T15:31:32;84.35;;;53.15;;
70929;SDS011;58588;48.102;19.682;2023-02-12T15:34:36;47.80;;;26.25;;
70929;SDS011;58588;48.102;19.682;2023-02-12T15:37:40;55.42;;;23.52;;
70929;SDS011;58588;48.102;19.682;2023-02-12T15:40:52;47.53;;;23.87;;
70929;SDS011;58588;48.102;19.682;2023-02-12T15:43:57;48.00;;;24.02;;
70929;SDS011;58588;48.102;19.682;2023-02-12T15:47:01;67.28;;;30.33;;
70929;SDS011;58588;48.102;19.682;2023-02-12T15:50:11;109.75;;;42.00;;
70929;SDS011;58588;48.102;19.682;2023-02-12T15:53:14;117.13;;;44.08;;
70929;SDS011;58588;48.102;19.682;2023-02-12T15:56:17;129.03;;;45.47;;
70929;SDS011;58588;48.102;19.682;2023-02-12T15:59:24;90.85;;;34.28;;
70929;SDS011;58588;48.102;19.682;2023-02-12T16:02:29;114.72;;;40.58;;
70929;SDS011;58588;48.102;19.682;2023-02-12T16:05:32;168.63;;;52.83;;
70929;SDS011;58588;48.102;19.682;2023-02-12T16:08:35;220.63;;;66.32;;
70929;SDS011;58588;48.102;19.682;2023-02-12T16:11:37;118.40;;;42.00;;
70929;SDS011;58588;48.102;19.682;2023-02-12T16:14:44;145.00;;;44.22;;
70929;SDS011;58588;48.102;19.682;2023-02-12T16:17:49;75.10;;;26.30;;
70929;SDS011;58588;48.102;19.682;2023-02-12T16:21:00;43.83;;;17.60;;
70929;SDS011;58588;48.102;19.682;2023-02-12T16:24:04;37.80;;;15.98;;
70929;SDS011;58588;48.102;19.682;2023-02-12T16:27:23;34.50;;;14.67;;
70929;SDS011;58588;48.102;19.682;2023-02-12T16:30:29;40.78;;;16.90;;
70929;SDS011;58588;48.102;19.682;2023-02-12T16:33:33;50.05;;;19.08;;
70929;SDS011;58588;48.102;19.682;2023-02-12T16:36:36;47.35;;;20.13;;
70929;SDS011;58588;48.102;19.682;2023-02-12T16:43:22;61.17;;;23.23;;
70929;SDS011;58588;48.102;19.682;2023-02-12T16:46:31;125.72;;;43.47;;
70929;SDS011;58588;48.102;19.682;2023-02-12T16:49:35;140.13;;;46.90;;
70929;SDS011;58588;48.102;19.682;2023-02-12T16:52:37;81.85;;;33.30;;
70929;SDS011;58588;48.102;19.682;2023-02-12T16:55:40;154.07;;;45.63;;
70929;SDS011;58588;48.102;19.682;2023-02-12T16:58:43;121.57;;;39.73;;
70929;SDS011;58588;48.102;19.682;2023-02-12T17:02:00;70.97;;;25.33;;
70929;SDS011;58588;48.102;19.682;2023-02-12T17:05:04;92.43;;;29.70;;
70929;SDS011;58588;48.102;19.682;2023-02-12T17:08:09;73.95;;;26.33;;
70929;SDS011;58588;48.102;19.682;2023-02-12T17:11:14;76.63;;;27.63;;
70929;SDS011;58588;48.102;19.682;2023-02-12T17:14:18;72.73;;;26.77;;
70929;SDS011;58588;48.102;19.682;2023-02-12T17:17:22;78.05;;;31.05;;
70929;SDS011;58588;48.102;19.682;2023-02-12T17:20:24;77.63;;;28.38;;
70929;SDS011;58588;48.102;19.682;2023-02-12T17:23:26;92.93;;;31.83;;
70929;SDS011;58588;48.102;19.682;2023-02-12T17:26:28;113.88;;;34.15;;
70929;SDS011;58588;48.102;19.682;2023-02-12T17:29:30;81.17;;;28.77;;
70929;SDS011;58588;48.102;19.682;2023-02-12T17:32:34;48.03;;;19.35;;
70929;SDS011;58588;48.102;19.682;2023-02-12T17:35:36;44.90;;;17.95;;
70929;SDS011;58588;48.102;19.682;2023-02-12T17:38:38;61.13;;;23.77;;
70929;SDS011;58588;48.102;19.682;2023-02-12T17:41:40;92.43;;;30.73;;
70929;SDS011;58588;48.102;19.682;2023-02-12T17:44:43;114.70;;;36.67;;
70929;SDS011;58588;48.102;19.682;2023-02-12T17:47:46;84.10;;;32.80;;
70929;SDS011;58588;48.102;19.682;2023-02-12T17:50:52;98.97;;;33.60;;
70929;SDS011;58588;48.102;19.682;2023-02-12T17:53:56;85.57;;;29.67;;
70929;SDS011;58588;48.102;19.682;2023-02-12T17:56:58;86.25;;;28.50;;
70929;SDS011;58588;48.102;19.682;2023-02-12T18:00:04;51.00;;;21.17;;
70929;SDS011;58588;48.102;19.682;2023-02-12T18:03:07;53.63;;;20.88;;
70929;SDS011;58588;48.102;19.682;2023-02-12T18:06:10;47.67;;;19.05;;
70929;SDS011;58588;48.102;19.682;2023-02-12T18:09:15;65.28;;;24.77;;
70929;SDS011;58588;48.102;19.682;2023-02-12T18:12:17;146.85;;;49.25;;
70929;SDS011;58588;48.102;19.682;2023-02-12T18:15:19;91.40;;;32.90;;
70929;SDS011;58588;48.102;19.682;2023-02-12T18:18:23;83.07;;;32.00;;
70929;SDS011;58588;48.102;19.682;2023-02-12T18:21:25;69.63;;;27.88;;
70929;SDS011;58588;48.102;19.682;2023-02-12T18:24:27;77.32;;;29.02;;
70929;SDS011;58588;48.102;19.682;2023-02-12T18:27:30;55.90;;;21.50;;
70929;SDS011;58588;48.102;19.682;2023-02-12T18:30:32;42.87;;;17.53;;
70929;SDS011;58588;48.102;19.682;2023-02-12T18:33:37;40.38;;;16.13;;
70929;SDS011;58588;48.102;19.682;2023-02-12T18:36:39;47.85;;;17.63;;
70929;SDS011;58588;48.102;19.682;2023-02-12T18:39:41;47.55;;;17.75;;
70929;SDS011;58588;48.102;19.682;2023-02-12T18:42:43;44.83;;;17.63;;